createdAt,value
2023-09-27T00:00:11.033Z,18.06
2023-09-27T00:02:42.070Z,18.04
2023-09-27T00:05:11.963Z,18.02
2023-09-27T00:07:40.501Z,17.99
2023-09-27T00:10:11.486Z,17.97
2023-09-27T00:12:39.390Z,17.94
2023-09-27T00:15:09.097Z,17.91
2023-09-27T00:17:36.365Z,17.90
2023-09-27T00:20:04.842Z,17.89
2023-09-27T00:22:32.580Z,17.87
2023-09-27T00:25:00.572Z,17.86
2023-09-27T00:27:27.641Z,17.83
2023-09-27T00:29:54.863Z,17.78
2023-09-27T00:32:22.369Z,17.76
2023-09-27T00:34:49.652Z,17.74
2023-09-27T00:37:16.896Z,17.72
2023-09-27T00:39:43.920Z,17.70
2023-09-27T00:42:11.254Z,17.67
2023-09-27T00:44:38.429Z,17.66
2023-09-27T00:47:06.016Z,17.64
2023-09-27T00:49:33.213Z,17.61
2023-09-27T00:52:00.380Z,17.60
2023-09-27T00:54:28.115Z,17.55
2023-09-27T00:56:55.250Z,17.53
2023-09-27T00:59:22.500Z,17.52
2023-09-27T01:01:49.665Z,17.51
2023-09-27T01:04:17.424Z,17.49
2023-09-27T01:06:45.187Z,17.48
2023-09-27T01:09:15.458Z,17.47
2023-09-27T01:11:43.374Z,17.45
2023-09-27T01:14:10.662Z,17.44
2023-09-27T01:16:38.110Z,17.43
2023-09-27T01:19:05.569Z,17.42
2023-09-27T01:21:32.797Z,17.42
2023-09-27T01:23:59.839Z,17.42
2023-09-27T01:26:28.265Z,17.41
2023-09-27T01:28:56.462Z,17.40
2023-09-27T01:31:23.743Z,17.38
2023-09-27T01:33:51.178Z,17.38
2023-09-27T01:36:19.864Z,17.37
2023-09-27T01:38:46.900Z,17.35
2023-09-27T01:41:14.747Z,17.33
2023-09-27T01:43:41.832Z,17.31
2023-09-27T01:46:08.901Z,17.32
2023-09-27T01:48:36.158Z,17.33
2023-09-27T01:51:04.041Z,17.34
2023-09-27T01:53:31.134Z,17.34
2023-09-27T01:55:58.248Z,17.33
2023-09-27T01:58:25.271Z,17.32
2023-09-27T02:00:52.360Z,17.31
2023-09-27T02:03:21.635Z,17.30
2023-09-27T02:05:48.962Z,17.30
2023-09-27T02:08:17.087Z,17.29
2023-09-27T02:10:45.143Z,17.27
2023-09-27T02:13:12.545Z,17.25
2023-09-27T02:15:40.077Z,17.24
2023-09-27T02:18:07.371Z,17.25
2023-09-27T02:20:34.521Z,17.22
2023-09-27T02:23:01.685Z,17.20
2023-09-27T02:25:29.030Z,17.19
2023-09-27T02:27:56.113Z,17.17
2023-09-27T02:30:23.176Z,17.16
2023-09-27T02:32:50.257Z,17.13
2023-09-27T02:35:20.760Z,17.11
2023-09-27T02:37:48.213Z,17.09
2023-09-27T02:40:16.838Z,17.09
2023-09-27T02:42:45.247Z,17.08
2023-09-27T02:45:13.057Z,17.06
2023-09-27T02:47:40.998Z,17.04
2023-09-27T02:50:11.709Z,17.02
2023-09-27T02:52:41.806Z,17.01
2023-09-27T02:55:12.101Z,17.00
2023-09-27T02:57:39.786Z,16.98
2023-09-27T03:00:08.164Z,16.97
2023-09-27T03:02:36.662Z,16.96
2023-09-27T03:05:07.307Z,16.94
2023-09-27T03:07:39.587Z,16.92
2023-09-27T03:10:14.016Z,16.90
2023-09-27T03:12:42.057Z,16.88
2023-09-27T03:15:13.969Z,16.88
2023-09-27T03:17:43.958Z,16.86
2023-09-27T03:20:20.814Z,16.84
2023-09-27T03:22:49.527Z,16.83
2023-09-27T03:25:20.067Z,16.82
2023-09-27T03:27:47.761Z,16.81
2023-09-27T03:30:15.889Z,16.79
2023-09-27T03:32:44.052Z,16.78
2023-09-27T03:35:11.272Z,16.76
2023-09-27T03:37:39.393Z,16.75
2023-09-27T03:40:17.007Z,16.74
2023-09-27T03:42:45.651Z,16.73
2023-09-27T03:45:14.260Z,16.73
2023-09-27T03:47:44.313Z,16.71
2023-09-27T03:50:13.724Z,16.71
2023-09-27T03:52:41.875Z,16.70
2023-09-27T03:55:09.892Z,16.69
2023-09-27T03:57:38.806Z,16.69
2023-09-27T04:00:15.439Z,16.68
2023-09-27T04:02:44.810Z,16.67
2023-09-27T04:05:12.678Z,16.64
2023-09-27T04:07:43.456Z,16.63
2023-09-27T04:10:36.575Z,16.64
2023-09-27T04:13:04.446Z,16.63
2023-09-27T04:15:31.916Z,16.64
2023-09-27T04:17:59.106Z,16.65
2023-09-27T04:20:26.822Z,16.66
2023-09-27T04:22:53.888Z,16.66
2023-09-27T04:25:21.360Z,16.65
2023-09-27T04:27:51.101Z,16.64
2023-09-27T04:30:20.876Z,16.66
2023-09-27T04:32:52.840Z,16.66
2023-09-27T04:35:21.271Z,16.68
2023-09-27T04:37:48.655Z,16.69
2023-09-27T04:40:15.891Z,16.71
2023-09-27T04:42:43.238Z,16.73
2023-09-27T04:45:14.158Z,16.74
2023-09-27T04:47:42.083Z,16.74
2023-09-27T04:50:13.374Z,16.75
2023-09-27T04:52:41.147Z,16.76
2023-09-27T04:55:10.073Z,16.79
2023-09-27T04:57:37.886Z,16.79
2023-09-27T05:00:07.279Z,16.81
2023-09-27T05:02:34.716Z,16.82
2023-09-27T05:05:02.007Z,16.84
2023-09-27T05:07:30.772Z,16.88
2023-09-27T05:09:57.974Z,16.92
2023-09-27T05:12:25.497Z,16.96
2023-09-27T05:14:52.778Z,16.97
2023-09-27T05:17:19.971Z,17.02
2023-09-27T05:19:47.032Z,17.03
2023-09-27T05:22:15.675Z,17.06
2023-09-27T05:24:42.754Z,17.08
2023-09-27T05:27:09.924Z,17.10
2023-09-27T05:29:37.192Z,17.14
2023-09-27T05:32:04.671Z,17.18
2023-09-27T05:34:33.396Z,17.21
2023-09-27T05:37:00.620Z,17.25
2023-09-27T05:39:27.868Z,17.28
2023-09-27T05:41:54.986Z,17.31
2023-09-27T05:44:22.111Z,17.34
2023-09-27T05:46:49.799Z,17.38
2023-09-27T05:49:18.152Z,17.43
2023-09-27T05:51:45.739Z,17.46
2023-09-27T05:54:12.749Z,17.48
2023-09-27T05:56:39.857Z,17.54
2023-09-27T05:59:10.041Z,17.58
2023-09-27T06:01:37.607Z,17.62
2023-09-27T06:04:05.211Z,17.68
2023-09-27T06:06:33.772Z,17.72
2023-09-27T06:09:01.161Z,17.76
2023-09-27T06:11:29.172Z,17.80
2023-09-27T06:13:56.406Z,17.85
2023-09-27T06:16:24.019Z,17.90
2023-09-27T06:18:51.796Z,17.95
2023-09-27T06:21:19.002Z,18.02
2023-09-27T06:23:46.213Z,18.05
2023-09-27T06:26:13.934Z,18.09
2023-09-27T06:28:41.410Z,18.14
2023-09-27T06:31:08.690Z,18.19
2023-09-27T06:33:39.670Z,18.24
2023-09-27T06:36:11.091Z,18.29
2023-09-27T06:38:38.225Z,18.35
2023-09-27T06:41:05.509Z,18.44
2023-09-27T06:43:32.916Z,18.51
2023-09-27T06:46:02.805Z,18.60
2023-09-27T06:48:30.534Z,18.69
2023-09-27T06:50:57.782Z,18.78
2023-09-27T06:53:29.870Z,18.86
2023-09-27T06:56:00.284Z,18.97
2023-09-27T06:58:27.438Z,19.06
2023-09-27T07:00:55.972Z,19.15
2023-09-27T07:03:26.867Z,19.24
2023-09-27T07:05:54.729Z,19.34
2023-09-27T07:08:22.388Z,19.42
2023-09-27T07:10:50.307Z,19.55
2023-09-27T07:13:17.908Z,19.64
2023-09-27T07:15:49.237Z,19.76
2023-09-27T07:18:16.586Z,19.86
2023-09-27T07:20:43.925Z,19.97
2023-09-27T07:23:16.416Z,20.07
2023-09-27T07:25:44.449Z,20.16
2023-09-27T07:28:11.982Z,20.24
2023-09-27T07:30:39.673Z,20.33
2023-09-27T07:33:13.375Z,20.41
2023-09-27T07:35:44.360Z,20.52
2023-09-27T07:38:15.351Z,20.63
2023-09-27T07:40:46.784Z,20.73
2023-09-27T07:43:15.509Z,20.83
2023-09-27T07:45:44.620Z,20.94
2023-09-27T07:48:12.008Z,21.03
2023-09-27T07:50:39.999Z,21.06
2023-09-27T07:53:08.109Z,21.11
2023-09-27T07:55:44.635Z,21.14
2023-09-27T07:58:13.897Z,21.19
2023-09-27T08:00:41.813Z,21.23
2023-09-27T08:03:09.524Z,21.31
2023-09-27T08:05:54.690Z,21.37
2023-09-27T08:08:22.862Z,21.43
2023-09-27T08:10:51.281Z,21.49
2023-09-27T08:13:18.974Z,21.58
2023-09-27T08:15:50.584Z,21.69
2023-09-27T08:18:17.817Z,21.81
2023-09-27T08:20:45.280Z,21.93
2023-09-27T08:23:12.992Z,22.05
2023-09-27T08:25:40.306Z,22.15
2023-09-27T08:28:07.961Z,22.25
2023-09-27T08:30:35.208Z,22.38
2023-09-27T08:33:02.622Z,22.46
2023-09-27T08:35:30.338Z,22.55
2023-09-27T08:37:57.656Z,22.65
2023-09-27T08:40:25.027Z,22.75
2023-09-27T08:42:57.210Z,22.86
2023-09-27T08:45:24.695Z,22.97
2023-09-27T08:47:52.428Z,23.03
2023-09-27T08:50:19.995Z,23.14
2023-09-27T08:52:50.707Z,23.27
2023-09-27T08:55:19.216Z,23.34
2023-09-27T08:57:47.704Z,23.42
2023-09-27T09:00:16.224Z,23.49
2023-09-27T09:02:45.064Z,23.58
2023-09-27T09:05:15.283Z,23.69
2023-09-27T09:07:45.869Z,23.74
2023-09-27T09:10:44.588Z,23.86
2023-09-27T09:13:12.384Z,23.96
2023-09-27T09:15:43.103Z,24.07
2023-09-27T09:18:16.445Z,24.18
2023-09-27T09:20:56.312Z,24.29
2023-09-27T09:23:36.681Z,24.37
2023-09-27T09:26:13.072Z,24.43
2023-09-27T09:28:54.376Z,24.47
2023-09-27T09:31:26.487Z,24.54
2023-09-27T09:34:07.191Z,24.61
2023-09-27T09:36:35.072Z,24.63
2023-09-27T09:39:14.773Z,24.69
2023-09-27T09:41:50.143Z,24.78
2023-09-27T09:44:21.858Z,24.87
2023-09-27T09:46:49.642Z,24.96
2023-09-27T09:49:17.318Z,25.05
2023-09-27T09:51:48.998Z,25.11
2023-09-27T09:54:32.024Z,25.18
2023-09-27T09:57:07.997Z,25.27
2023-09-27T09:59:46.572Z,25.37
2023-09-27T10:02:24.536Z,25.45
2023-09-27T10:04:57.624Z,25.55
2023-09-27T10:07:25.055Z,25.64
2023-09-27T10:09:53.585Z,25.70
2023-09-27T10:12:22.584Z,25.79
2023-09-27T10:14:50.140Z,25.84
2023-09-27T10:17:22.032Z,25.87
2023-09-27T10:20:21.272Z,25.77
2023-09-27T10:22:49.539Z,25.76
2023-09-27T10:25:28.978Z,25.77
2023-09-27T10:28:16.605Z,25.78
2023-09-27T10:30:46.625Z,25.82
2023-09-27T10:33:17.271Z,25.83
2023-09-27T10:35:48.367Z,25.86
2023-09-27T10:38:17.208Z,25.93
2023-09-27T10:40:45.517Z,26.01
2023-09-27T10:43:42.272Z,26.10
2023-09-27T10:46:09.727Z,26.16
2023-09-27T10:48:43.829Z,26.22
2023-09-27T10:51:11.020Z,26.28
2023-09-27T10:53:38.691Z,26.33
2023-09-27T10:56:05.903Z,26.37
2023-09-27T10:58:33.380Z,26.40
2023-09-27T11:01:05.993Z,26.43
2023-09-27T11:03:34.687Z,26.41
2023-09-27T11:06:12.301Z,26.42
2023-09-27T11:08:41.504Z,26.47
2023-09-27T11:11:10.932Z,26.51
2023-09-27T11:13:45.136Z,26.57
2023-09-27T11:16:16.073Z,26.61
2023-09-27T11:18:47.679Z,26.61
2023-09-27T11:21:15.346Z,26.58
2023-09-27T11:23:55.740Z,26.55
2023-09-27T11:26:24.158Z,26.58
2023-09-27T11:29:03.606Z,26.58
2023-09-27T11:31:32.615Z,26.63
2023-09-27T11:34:19.824Z,26.63
2023-09-27T11:36:47.548Z,26.61
2023-09-27T11:39:15.202Z,26.49
2023-09-27T11:41:43.238Z,26.44
2023-09-27T11:44:20.587Z,26.45
2023-09-27T11:46:50.834Z,26.41
2023-09-27T11:49:19.135Z,26.35
2023-09-27T11:51:46.655Z,26.30
2023-09-27T11:54:14.060Z,26.25
2023-09-27T11:56:47.656Z,26.20
2023-09-27T11:59:15.760Z,26.22
2023-09-27T12:01:42.971Z,26.25
2023-09-27T12:04:10.476Z,26.27
2023-09-27T12:06:38.940Z,26.30
2023-09-27T12:09:06.614Z,26.29
2023-09-27T12:11:34.741Z,26.26
2023-09-27T12:14:02.510Z,26.24
2023-09-27T12:16:30.149Z,26.25
2023-09-27T12:18:57.308Z,26.28
2023-09-27T12:21:25.212Z,26.31
2023-09-27T12:23:52.661Z,26.31
2023-09-27T12:26:20.052Z,26.30
2023-09-27T12:28:48.071Z,26.31
2023-09-27T12:31:15.736Z,26.27
2023-09-27T12:33:43.134Z,26.20
2023-09-27T12:36:10.765Z,26.17
2023-09-27T12:38:38.177Z,26.18
2023-09-27T12:41:09.140Z,26.14
2023-09-27T12:43:36.483Z,26.11
2023-09-27T12:46:04.094Z,26.08
2023-09-27T12:48:35.336Z,26.04
2023-09-27T12:51:03.302Z,26.01
2023-09-27T12:53:31.208Z,26.03
2023-09-27T12:55:58.614Z,26.04
2023-09-27T12:58:25.996Z,26.04
2023-09-27T13:00:53.284Z,26.03
2023-09-27T13:03:20.831Z,26.02
2023-09-27T13:05:50.290Z,25.97
2023-09-27T13:08:17.635Z,25.93
2023-09-27T13:10:45.689Z,25.88
2023-09-27T13:13:13.216Z,25.86
2023-09-27T13:15:40.942Z,25.83
2023-09-27T13:18:09.682Z,25.80
2023-09-27T13:20:37.220Z,25.78
2023-09-27T13:23:04.745Z,25.77
2023-09-27T13:25:31.972Z,25.72
2023-09-27T13:27:59.358Z,25.70
2023-09-27T13:30:35.527Z,25.69
2023-09-27T13:33:04.547Z,25.67
2023-09-27T13:35:35.056Z,25.63
2023-09-27T13:38:07.405Z,25.61
2023-09-27T13:40:35.622Z,25.59
2023-09-27T13:43:03.171Z,25.59
2023-09-27T13:45:30.948Z,25.60
2023-09-27T13:47:58.567Z,25.59
2023-09-27T13:50:26.239Z,25.59
2023-09-27T13:52:53.545Z,25.59
2023-09-27T13:55:22.908Z,25.57
2023-09-27T13:57:50.396Z,25.56
2023-09-27T14:00:18.814Z,25.53
2023-09-27T14:02:46.765Z,25.52
2023-09-27T14:05:14.218Z,25.49
2023-09-27T14:07:43.374Z,25.47
2023-09-27T14:10:37.012Z,25.45
2023-09-27T14:13:04.693Z,25.42
2023-09-27T14:15:32.560Z,25.38
2023-09-27T14:17:59.888Z,25.36
2023-09-27T14:20:27.824Z,25.32
2023-09-27T14:22:57.326Z,25.29
2023-09-27T14:25:26.354Z,25.27
2023-09-27T14:27:54.482Z,25.26
2023-09-27T14:30:21.901Z,25.24
2023-09-27T14:32:49.585Z,25.21
2023-09-27T14:35:17.384Z,25.16
2023-09-27T14:37:44.603Z,25.11
2023-09-27T14:40:12.420Z,25.05
2023-09-27T14:42:41.245Z,25.02
2023-09-27T14:45:20.182Z,25.00
2023-09-27T14:47:52.679Z,24.95
2023-09-27T14:50:20.162Z,24.92
2023-09-27T14:52:47.870Z,24.89
2023-09-27T14:55:16.576Z,24.85
2023-09-27T14:57:43.812Z,24.81
2023-09-27T15:00:13.284Z,24.77
2023-09-27T15:02:42.839Z,24.70
2023-09-27T15:05:12.410Z,24.65
2023-09-27T15:07:40.086Z,24.62
2023-09-27T15:10:33.283Z,24.55
2023-09-27T15:13:01.740Z,24.49
2023-09-27T15:15:29.438Z,24.42
2023-09-27T15:17:56.691Z,24.30
2023-09-27T15:20:24.028Z,24.19
2023-09-27T15:22:51.571Z,24.07
2023-09-27T15:25:18.961Z,23.93
2023-09-27T15:27:46.774Z,23.81
2023-09-27T15:30:13.965Z,23.70
2023-09-27T15:32:41.246Z,23.59
2023-09-27T15:35:09.107Z,23.49
2023-09-27T15:37:36.446Z,23.40
2023-09-27T15:40:06.540Z,23.28
2023-09-27T15:42:33.771Z,23.18
2023-09-27T15:45:04.735Z,23.11
2023-09-27T15:47:34.062Z,23.09
2023-09-27T15:50:01.283Z,23.06
2023-09-27T15:52:31.303Z,23.02
2023-09-27T15:54:59.244Z,22.99
2023-09-27T15:57:26.579Z,22.96
2023-09-27T15:59:53.965Z,22.92
2023-09-27T16:02:21.204Z,22.89
2023-09-27T16:04:52.749Z,22.83
2023-09-27T16:07:21.746Z,22.78
2023-09-27T16:09:49.184Z,22.74
2023-09-27T16:12:17.709Z,22.67
2023-09-27T16:14:45.105Z,22.63
2023-09-27T16:17:12.513Z,22.58
2023-09-27T16:19:40.797Z,22.54
2023-09-27T16:22:08.003Z,22.48
2023-09-27T16:24:35.128Z,22.43
2023-09-27T16:27:02.381Z,22.40
2023-09-27T16:29:29.777Z,22.36
2023-09-27T16:31:58.567Z,22.31
2023-09-27T16:34:26.618Z,22.27
2023-09-27T16:36:53.828Z,22.23
2023-09-27T16:39:21.048Z,22.19
2023-09-27T16:41:48.319Z,22.14
2023-09-27T16:44:15.811Z,22.12
2023-09-27T16:46:43.089Z,22.08
2023-09-27T16:49:10.935Z,22.04
2023-09-27T16:51:38.343Z,22.01
2023-09-27T16:54:05.615Z,21.99
2023-09-27T16:56:33.416Z,21.95
2023-09-27T16:59:01.022Z,21.91
2023-09-27T17:01:28.707Z,21.88
2023-09-27T17:03:56.474Z,21.83
2023-09-27T17:06:24.211Z,21.80
2023-09-27T17:08:51.440Z,21.76
2023-09-27T17:11:24.536Z,21.72
2023-09-27T17:13:52.489Z,21.68
2023-09-27T17:16:27.778Z,21.65
2023-09-27T17:18:55.713Z,21.62
2023-09-27T17:21:23.668Z,21.59
2023-09-27T17:23:51.291Z,21.55
2023-09-27T17:26:19.011Z,21.53
2023-09-27T17:28:46.284Z,21.50
2023-09-27T17:31:13.871Z,21.47
2023-09-27T17:33:42.603Z,21.45
2023-09-27T17:36:10.418Z,21.43
2023-09-27T17:38:38.551Z,21.38
2023-09-27T17:41:05.843Z,21.36
2023-09-27T17:43:35.291Z,21.32
2023-09-27T17:46:02.790Z,21.30
2023-09-27T17:48:30.424Z,21.27
2023-09-27T17:50:57.895Z,21.25
2023-09-27T17:53:25.368Z,21.23
2023-09-27T17:55:53.025Z,21.21
2023-09-27T17:58:20.801Z,21.19
2023-09-27T18:00:49.245Z,21.17
2023-09-27T18:03:16.574Z,21.15
2023-09-27T18:05:43.854Z,21.12
2023-09-27T18:08:11.437Z,21.11
2023-09-27T18:10:45.228Z,21.09
2023-09-27T18:13:12.602Z,21.06
2023-09-27T18:15:40.804Z,21.03
2023-09-27T18:18:07.922Z,21.01
2023-09-27T18:20:38.637Z,20.99
2023-09-27T18:23:06.036Z,20.97
2023-09-27T18:25:33.379Z,20.95
2023-09-27T18:28:01.004Z,20.92
2023-09-27T18:30:28.141Z,20.90
2023-09-27T18:32:55.293Z,20.87
2023-09-27T18:35:22.676Z,20.83
2023-09-27T18:37:49.802Z,20.79
2023-09-27T18:40:19.745Z,20.76
2023-09-27T18:42:46.842Z,20.74
2023-09-27T18:45:14.194Z,20.71
2023-09-27T18:47:41.741Z,20.68
2023-09-27T18:50:09.316Z,20.65
2023-09-27T18:52:36.589Z,20.61
2023-09-27T18:55:04.269Z,20.57
2023-09-27T18:57:31.860Z,20.55
2023-09-27T18:59:59.235Z,20.52
2023-09-27T19:02:26.537Z,20.48
2023-09-27T19:04:54.160Z,20.43
2023-09-27T19:07:21.737Z,20.40
2023-09-27T19:09:49.429Z,20.38
2023-09-27T19:12:17.022Z,20.36
2023-09-27T19:14:45.630Z,20.33
2023-09-27T19:17:12.738Z,20.29
2023-09-27T19:19:45.061Z,20.26
2023-09-27T19:22:12.464Z,20.23
2023-09-27T19:24:39.573Z,20.21
2023-09-27T19:27:06.887Z,20.17
2023-09-27T19:29:34.052Z,20.16
2023-09-27T19:32:01.589Z,20.10
2023-09-27T19:34:28.800Z,20.06
2023-09-27T19:36:55.940Z,20.05
2023-09-27T19:39:23.224Z,20.03
2023-09-27T19:41:51.110Z,20.00
2023-09-27T19:44:19.133Z,19.97
2023-09-27T19:46:46.787Z,19.94
2023-09-27T19:49:14.251Z,19.92
2023-09-27T19:51:41.441Z,19.89
2023-09-27T19:54:09.832Z,19.87
2023-09-27T19:56:36.959Z,19.84
2023-09-27T19:59:04.842Z,19.81
2023-09-27T20:01:33.122Z,19.79
2023-09-27T20:04:00.535Z,19.77
2023-09-27T20:06:29.062Z,19.75
2023-09-27T20:08:56.616Z,19.72
2023-09-27T20:11:24.931Z,19.72
2023-09-27T20:13:52.752Z,19.69
2023-09-27T20:16:20.287Z,19.67
2023-09-27T20:18:47.681Z,19.65
2023-09-27T20:21:14.732Z,19.61
2023-09-27T20:23:42.036Z,19.58
2023-09-27T20:26:09.355Z,19.54
2023-09-27T20:28:37.322Z,19.52
2023-09-27T20:31:04.717Z,19.50
2023-09-27T20:33:31.937Z,19.47
2023-09-27T20:35:59.194Z,19.44
2023-09-27T20:38:26.811Z,19.42
2023-09-27T20:40:54.046Z,19.42
2023-09-27T20:43:21.076Z,19.37
2023-09-27T20:45:48.300Z,19.37
2023-09-27T20:48:15.438Z,19.35
2023-09-27T20:50:42.574Z,19.33
2023-09-27T20:53:09.760Z,19.31
2023-09-27T20:55:36.793Z,19.30
2023-09-27T20:58:04.719Z,19.27
2023-09-27T21:00:31.899Z,19.26
2023-09-27T21:02:59.113Z,19.24
2023-09-27T21:05:26.327Z,19.23
2023-09-27T21:07:54.242Z,19.21
2023-09-27T21:10:22.281Z,19.21
2023-09-27T21:12:49.521Z,19.19
2023-09-27T21:15:16.549Z,19.19
2023-09-27T21:17:43.660Z,19.18
2023-09-27T21:20:11.363Z,19.16
2023-09-27T21:22:38.607Z,19.15
2023-09-27T21:25:07.198Z,19.12
2023-09-27T21:27:35.101Z,19.10
2023-09-27T21:30:05.988Z,19.08
2023-09-27T21:32:33.524Z,19.08
2023-09-27T21:35:00.752Z,19.07
2023-09-27T21:37:27.946Z,19.05
2023-09-27T21:39:54.953Z,19.04
2023-09-27T21:42:22.395Z,19.02
2023-09-27T21:44:49.470Z,19.01
2023-09-27T21:47:16.873Z,19.00
2023-09-27T21:49:43.997Z,18.99
2023-09-27T21:52:11.591Z,18.97
2023-09-27T21:54:38.770Z,18.95
2023-09-27T21:57:05.945Z,18.93
2023-09-27T21:59:33.084Z,18.91
2023-09-27T22:02:00.291Z,18.90
2023-09-27T22:04:27.826Z,18.88
2023-09-27T22:06:54.884Z,18.86
2023-09-27T22:09:23.921Z,18.86
2023-09-27T22:11:53.332Z,18.85
2023-09-27T22:14:21.348Z,18.83
2023-09-27T22:16:49.331Z,18.82
2023-09-27T22:19:18.221Z,18.80
2023-09-27T22:21:47.518Z,18.79
2023-09-27T22:24:16.826Z,18.75
2023-09-27T22:26:47.104Z,18.75
2023-09-27T22:29:15.403Z,18.73
2023-09-27T22:31:43.705Z,18.71
2023-09-27T22:34:26.287Z,18.69
2023-09-27T22:36:54.527Z,18.66
2023-09-27T22:39:23.120Z,18.64
2023-09-27T22:41:53.554Z,18.62
2023-09-27T22:44:22.072Z,18.59
2023-09-27T22:46:51.243Z,18.55
2023-09-27T22:49:20.414Z,18.53
2023-09-27T22:51:47.770Z,18.50
2023-09-27T22:54:18.267Z,18.47
2023-09-27T22:56:45.967Z,18.46
2023-09-27T22:59:13.262Z,18.45
2023-09-27T23:01:41.352Z,18.43
2023-09-27T23:04:12.437Z,18.40
2023-09-27T23:06:46.028Z,18.38
2023-09-27T23:09:25.762Z,18.34
2023-09-27T23:12:16.692Z,18.32
2023-09-27T23:15:02.432Z,18.29
2023-09-27T23:17:32.252Z,18.26
2023-09-27T23:20:00.302Z,18.23
2023-09-27T23:22:27.913Z,18.20
2023-09-27T23:25:18.171Z,18.18
2023-09-27T23:27:47.982Z,18.15
2023-09-27T23:30:15.579Z,18.13
2023-09-27T23:32:43.847Z,18.11
2023-09-27T23:35:11.236Z,18.09
2023-09-27T23:37:38.689Z,18.07
2023-09-27T23:40:15.565Z,18.07
2023-09-27T23:42:48.338Z,18.04
2023-09-27T23:45:15.793Z,18.04
2023-09-27T23:47:51.037Z,18.03
2023-09-27T23:50:18.915Z,18.03
2023-09-27T23:52:47.519Z,18.01
2023-09-27T23:55:18.469Z,17.99
2023-09-27T23:57:49.290Z,17.98
